F/V Iroise — FGRR — position and weather

sailwx.info

Track history (hours):
 
Tides and Currents Weather Stations Pressure Air Temp Water Temp Dewpoint Dewpoint Depression Visibility Wind Speed Wind Dir Waves Ship Positions

F/V Iroise

Last reported at 2018-Feb-13 22:09 UTC. Time now 2018-Feb-18 03:32 UTC.
Position N 48°36' W 004°57'.

Length 33 m; draft 4.5 m.

Type: Fishing. MMSI: 227347000.

Date/timePositionNaut miles runAvg speedWind from/ knotsBaromVisibWave heightAir tempDewpointWater temp
2018-Feb-13 22:09N 48°36' W 004°57'1 9.5
2018-Feb-13 22:00N 48°34' W 004°56'7 9.3
2018-Feb-13 21:13N 48°28' W 004°51'2 9.3
2018-Feb-13 21:00N 48°26' W 004°50'4 9.0
2018-Feb-13 20:30N 48°22' W 004°49'4 8.5
2018-Feb-13 20:00N 48°18' W 004°47'5 9.3
2018-Feb-13 19:30N 48°13' W 004°46'4 8.9
2018-Feb-13 19:00N 48°09' W 004°42'5 9.3
2018-Feb-13 18:29N 48°07' W 004°35'5 9.6
2018-Feb-13 17:59N 48°08' W 004°28'4 8.9
2018-Feb-13 17:30N 48°08' W 004°22'2 4.6
2018-Feb-13 17:00N 48°06' W 004°19'0 0.0
2018-Feb-13 16:25N 48°06' W 004°19'0 0.3
2018-Feb-13 16:00N 48°06' W 004°20'0 0.0
2018-Feb-13 15:30N 48°06' W 004°20'0 0.0
2018-Feb-13 14:59N 48°06' W 004°20'0 0.0
2018-Feb-13 14:30N 48°06' W 004°20'0 0.0
2018-Feb-13 14:00N 48°06' W 004°20'0 0.0
2018-Feb-13 13:29N 48°06' W 004°20'0 0.0
2018-Feb-13 13:00N 48°06' W 004°20'0 0.0
2018-Feb-13 12:30N 48°06' W 004°20'0 0.0
2018-Feb-13 12:00N 48°06' W 004°20'0 0.0
2018-Feb-13 11:28N 48°06' W 004°20'0 0.0
2018-Feb-13 10:57N 48°06' W 004°20'0 0.0
2018-Feb-13 10:24N 48°06' W 004°20'0 0.0
2018-Feb-13 09:59N 48°06' W 004°20'0 0.0
2018-Feb-13 09:27N 48°06' W 004°20'0 0.0
2018-Feb-13 08:52N 48°06' W 004°20'0 0.0
2018-Feb-13 08:29N 48°06' W 004°20'0 0.0
2018-Feb-13 08:00N 48°06' W 004°20'0 0.0
2018-Feb-13 07:13N 48°06' W 004°20'0 0.0
2018-Feb-13 07:00N 48°06' W 004°20'0 0.0
2018-Feb-13 06:21N 48°06' W 004°20'0 0.0
2018-Feb-13 05:59N 48°06' W 004°20'0 0.0
2018-Feb-13 05:30N 48°06' W 004°20'0 0.0
2018-Feb-13 05:00N 48°06' W 004°20'0 0.0
2018-Feb-13 04:29N 48°06' W 004°20'0 0.0
2018-Feb-13 03:53N 48°06' W 004°20'0 0.0
2018-Feb-13 03:29N 48°06' W 004°20'0 0.0
2018-Feb-13 02:57N 48°06' W 004°20'0 0.0
2018-Feb-13 02:27N 48°06' W 004°20'0 0.0
2018-Feb-13 01:59N 48°06' W 004°20'0 0.0
2018-Feb-13 01:27N 48°06' W 004°20'0 0.0
2018-Feb-13 01:00N 48°06' W 004°20'0 0.0
2018-Feb-13 00:30N 48°06' W 004°20'0 0.0
2018-Feb-12 23:57N 48°06' W 004°20'0 0.0
2018-Feb-12 23:29N 48°06' W 004°20'0 0.0
2018-Feb-12 22:58N 48°06' W 004°20'0 0.0
2018-Feb-12 22:30N 48°06' W 004°20'0 0.0
2018-Feb-12 22:00N 48°06' W 004°20'0 0.0
2018-Feb-12 21:25N 48°06' W 004°20'0 0.0
2018-Feb-12 20:56N 48°06' W 004°20'0 0.0
2018-Feb-12 20:28N 48°06' W 004°20'0 0.0
2018-Feb-12 19:58N 48°06' W 004°20'0 0.0
2018-Feb-12 19:15N 48°06' W 004°20'0 0.0
2018-Feb-12 18:59N 48°06' W 004°20'0 0.0
2018-Feb-12 18:25N 48°06' W 004°20'0 0.0
2018-Feb-12 18:00N 48°06' W 004°20'0 0.0
2018-Feb-12 17:28N 48°06' W 004°20'0 0.0
2018-Feb-12 16:59N 48°06' W 004°20'0 0.0
2018-Feb-12 16:28N 48°06' W 004°20'0 0.0
2018-Feb-12 15:59N 48°06' W 004°20'0 0.0
2018-Feb-12 15:29N 48°06' W 004°20'0 0.0
2018-Feb-12 15:00N 48°06' W 004°20'0 0.0
2018-Feb-12 14:23N 48°06' W 004°20'0 0.0
2018-Feb-12 13:58N 48°06' W 004°20'0 0.0
2018-Feb-12 13:25N 48°06' W 004°20'0 0.0
2018-Feb-12 12:57N 48°06' W 004°20'0 0.0
2018-Feb-12 12:23N 48°06' W 004°20'0 0.0
2018-Feb-12 11:58N 48°06' W 004°20'0 0.0
2018-Feb-12 11:29N 48°06' W 004°20'0 0.0
2018-Feb-12 10:50N 48°06' W 004°20'0 0.0
2018-Feb-12 10:29N 48°06' W 004°20'0 0.0
2018-Feb-12 09:52N 48°06' W 004°20'0 0.0
2018-Feb-12 09:23N 48°06' W 004°20'0 0.0
2018-Feb-12 08:57N 48°06' W 004°20'0 0.0
2018-Feb-12 08:09N 48°06' W 004°20'0 0.0
2018-Feb-12 07:59N 48°06' W 004°20'0 0.0
2018-Feb-12 07:28N 48°06' W 004°20'0 0.0
2018-Feb-12 07:00N 48°06' W 004°20'0 0.0
2018-Feb-12 06:24N 48°06' W 004°20'0 0.0
2018-Feb-12 05:52N 48°06' W 004°20'0 0.0
2018-Feb-12 05:30N 48°06' W 004°20'0 0.0
2018-Feb-12 05:00N 48°06' W 004°20'0 0.0
2018-Feb-12 04:26N 48°06' W 004°20'0 0.0
2018-Feb-12 04:00N 48°06' W 004°20'0 0.0
2018-Feb-12 03:30N 48°06' W 004°20'0 0.0
2018-Feb-12 03:00N 48°06' W 004°20'0 0.0
2018-Feb-12 02:29N 48°06' W 004°20'0 0.0
2018-Feb-12 02:00N 48°06' W 004°20'0 0.0
2018-Feb-12 01:25N 48°06' W 004°20'0 0.0
2018-Feb-12 00:58N 48°06' W 004°20'0 0.0
2018-Feb-12 00:28N 48°06' W 004°20'0 0.0
2018-Feb-12 00:00N 48°06' W 004°20'0 0.0
2018-Feb-11 23:30N 48°06' W 004°20'0 0.0
2018-Feb-11 23:01N 48°06' W 004°20'0 0.0
2018-Feb-11 22:29N 48°06' W 004°20'0 0.0
2018-Feb-11 21:56N 48°06' W 004°20'0 0.0
2018-Feb-11 21:22N 48°06' W 004°20'0 0.0
2018-Feb-11 21:00N 48°06' W 004°20'0 0.0
2018-Feb-11 20:30N 48°06' W 004°20'0 0.0
2018-Feb-11 19:58N 48°06' W 004°20'0 0.0
2018-Feb-11 19:29N 48°06' W 004°20'0 0.0
2018-Feb-11 18:59N 48°06' W 004°20'0 0.0
2018-Feb-11 18:29N 48°06' W 004°20'0 0.0
2018-Feb-11 17:57N 48°06' W 004°20'0 0.0
2018-Feb-11 17:30N 48°06' W 004°20'0 0.0
2018-Feb-11 17:00N 48°06' W 004°20'0 0.0
2018-Feb-11 16:14N 48°06' W 004°20'0 0.0
2018-Feb-11 15:56N 48°06' W 004°20'0 0.0
2018-Feb-11 15:27N 48°06' W 004°20'0 0.0
2018-Feb-11 14:58N 48°06' W 004°20'0 0.0
2018-Feb-11 14:29N 48°06' W 004°20'0 0.0
2018-Feb-11 13:58N 48°06' W 004°20'0 0.0
2018-Feb-11 13:25N 48°06' W 004°20'0 0.0
2018-Feb-11 12:59N 48°06' W 004°20'0 0.0
2018-Feb-11 12:30N 48°06' W 004°20'0 0.0
2018-Feb-11 11:56N 48°06' W 004°20'0 0.0
2018-Feb-11 11:26N 48°06' W 004°20'0 0.0
2018-Feb-11 10:54N 48°06' W 004°20'0 0.0
2018-Feb-11 10:23N 48°06' W 004°20'0 0.0
2018-Feb-11 09:58N 48°06' W 004°20'0 0.0
2018-Feb-11 09:28N 48°06' W 004°20'0 0.0
2018-Feb-11 08:57N 48°06' W 004°20'0 0.0
2018-Feb-11 08:28N 48°06' W 004°20'0 0.0
2018-Feb-11 08:00N 48°06' W 004°20'0 0.0
2018-Feb-11 07:26N 48°06' W 004°20'0 0.0
2018-Feb-11 07:00N 48°06' W 004°20'0 0.0
2018-Feb-11 06:30N 48°06' W 004°20'0 0.0
2018-Feb-11 05:55N 48°06' W 004°20'0 0.0
2018-Feb-11 05:26N 48°06' W 004°20'0 0.0
2018-Feb-11 04:54N 48°06' W 004°20'0 0.0
2018-Feb-11 04:30N 48°06' W 004°20'0 0.0
2018-Feb-11 03:59N 48°06' W 004°20'0 0.0
2018-Feb-11 03:30N 48°06' W 004°20'0 0.0
2018-Feb-11 02:59N 48°06' W 004°20'0 0.0
2018-Feb-11 02:29N 48°06' W 004°20'0 0.0
2018-Feb-11 01:53N 48°06' W 004°20'0 0.0
2018-Feb-11 01:28N 48°06' W 004°20'0 0.0
2018-Feb-11 00:58N 48°06' W 004°20'0 0.0
2018-Feb-11 00:30N 48°06' W 004°20'0 0.0
2018-Feb-10 23:58N 48°06' W 004°20'0 0.0
2018-Feb-10 23:29N 48°06' W 004°20'0 0.0
2018-Feb-10 22:56N 48°06' W 004°20'0 0.0
2018-Feb-10 22:15N 48°06' W 004°20'0 0.0
2018-Feb-10 21:53N 48°06' W 004°20'0 0.0
2018-Feb-10 21:29N 48°06' W 004°20'0 0.0
2018-Feb-10 21:00N 48°06' W 004°20'0 0.0
2018-Feb-10 20:29N 48°06' W 004°20'0 0.0
2018-Feb-10 20:00N 48°06' W 004°20'0 0.0
2018-Feb-10 19:29N 48°06' W 004°20'0 0.0
2018-Feb-10 19:00N 48°06' W 004°20'0 0.0
2018-Feb-10 18:28N 48°06' W 004°20'0 0.0
2018-Feb-10 17:59N 48°06' W 004°20'0 0.0
2018-Feb-10 17:25N 48°06' W 004°20'0 0.0
2018-Feb-10 17:00N 48°06' W 004°20'0 0.0
2018-Feb-10 16:28N 48°06' W 004°20'0 0.0
2018-Feb-10 16:00N 48°06' W 004°20'0 0.0
2018-Feb-10 15:30N 48°06' W 004°20'0 0.0
2018-Feb-10 15:00N 48°06' W 004°20'0 0.0
2018-Feb-10 14:28N 48°06' W 004°20'0 0.0
2018-Feb-10 13:59N 48°06' W 004°20'0 0.0
2018-Feb-10 13:29N 48°06' W 004°20'0 0.0
2018-Feb-10 13:00N 48°06' W 004°20'0 0.0
2018-Feb-10 12:28N 48°06' W 004°20'0 0.0
2018-Feb-10 12:00N 48°06' W 004°20'0 0.0
2018-Feb-10 11:23N 48°06' W 004°20'0 0.0
2018-Feb-10 10:55N 48°06' W 004°20'0 0.0
2018-Feb-10 10:26N 48°06' W 004°20'0 0.0
2018-Feb-10 09:59N 48°06' W 004°20'0 0.0
2018-Feb-10 09:27N 48°06' W 004°20'0 0.0
2018-Feb-10 08:50N 48°06' W 004°20'0 0.0
2018-Feb-10 08:30N 48°06' W 004°20'0 0.0
2018-Feb-10 07:58N 48°06' W 004°20'0 0.0
2018-Feb-10 07:30N 48°06' W 004°20'0 0.0
2018-Feb-10 07:00N 48°06' W 004°20'0 0.0
2018-Feb-10 06:29N 48°06' W 004°20'0 0.0
2018-Feb-10 05:58N 48°06' W 004°20'0 0.0
2018-Feb-10 05:29N 48°06' W 004°20'0 0.0
2018-Feb-10 04:59N 48°06' W 004°20'0 0.0
2018-Feb-10 04:30N 48°06' W 004°20'0 0.0
2018-Feb-10 04:00N 48°06' W 004°20'0 0.0
2018-Feb-10 03:28N 48°06' W 004°20'0 0.0
2018-Feb-10 02:59N 48°06' W 004°20'0 0.0
2018-Feb-10 02:25N 48°06' W 004°20'0 0.0
2018-Feb-10 01:57N 48°06' W 004°20'0 0.0
2018-Feb-10 01:21N 48°06' W 004°20'0 0.0
2018-Feb-10 00:58N 48°06' W 004°20'0 0.0
2018-Feb-10 00:30N 48°06' W 004°20'0 0.0
2018-Feb-09 23:59N 48°06' W 004°20'0 0.0
2018-Feb-09 23:30N 48°06' W 004°20'0 0.0
2018-Feb-09 23:00N 48°06' W 004°20'0 0.0
2018-Feb-09 22:45N 48°06' W 004°20'0 0.0
2018-Feb-09 16:30N 48°06' W 004°20'0 0.0
2018-Feb-09 11:30N 48°06' W 004°20'0 0.0
2018-Feb-08 16:30N 48°06' W 004°20'0 0.0
2018-Feb-08 11:30N 48°06' W 004°20'0 0.0
2018-Feb-08 01:29N 48°06' W 004°20'0 0.0
2018-Feb-08 00:59N 48°06' W 004°20'0 0.0
2018-Feb-08 00:21N 48°06' W 004°20'0 0.0
2018-Feb-08 00:00N 48°06' W 004°20'0 0.0
2018-Feb-07 23:23N 48°06' W 004°20'0 0.0
2018-Feb-07 22:59N 48°06' W 004°20'0 0.0
2018-Feb-07 22:30N 48°06' W 004°20'0 0.0
2018-Feb-07 21:59N 48°06' W 004°20'0 0.0
2018-Feb-07 21:30N 48°06' W 004°20'0 0.0
2018-Feb-07 09:28N 48°06' W 004°20'0 0.0
2018-Feb-07 09:00N 48°06' W 004°20'0 0.0
2018-Feb-07 08:25N 48°06' W 004°20'0 0.0
2018-Feb-07 07:58N 48°06' W 004°20'0 0.0
2018-Feb-07 07:29N 48°06' W 004°20'0 0.0
2018-Feb-07 07:00N 48°06' W 004°20'0 0.0
2018-Feb-07 06:28N 48°06' W 004°20'0 0.0
2018-Feb-07 06:00N 48°06' W 004°20'0 0.0
2018-Feb-07 05:00N 48°06' W 004°20'0 0.0
2018-Feb-07 04:30N 48°06' W 004°20'0 0.0
2018-Feb-07 03:55N 48°06' W 004°20'0 0.0
2018-Feb-07 03:30N 48°06' W 004°20'0 0.0
2018-Feb-07 02:59N 48°06' W 004°20'0 0.0
2018-Feb-07 02:26N 48°06' W 004°20'0 0.0
2018-Feb-07 02:00N 48°06' W 004°20'0 0.0
2018-Feb-07 01:28N 48°06' W 004°20'0 0.0
2018-Feb-07 00:59N 48°06' W 004°20'0 0.0
2018-Feb-07 00:29N 48°06' W 004°20'0 0.0
2018-Feb-07 00:00N 48°06' W 004°20'0 0.0
2018-Feb-06 23:29N 48°06' W 004°20'0 0.0
2018-Feb-06 22:58N 48°06' W 004°20'0 0.0
2018-Feb-06 22:29N 48°06' W 004°20'0 0.0
2018-Feb-06 22:00N 48°06' W 004°20'0 0.0
2018-Feb-06 21:29N 48°06' W 004°20'0 0.0
2018-Feb-06 21:00N 48°06' W 004°20'0 0.0
2018-Feb-06 20:28N 48°06' W 004°20'0 0.0
2018-Feb-06 19:54N 48°06' W 004°20'0 0.0
2018-Feb-06 19:30N 48°06' W 004°20'0 0.0
2018-Feb-06 19:00N 48°06' W 004°20'0 0.0
2018-Feb-06 18:27N 48°06' W 004°20'0 0.0
2018-Feb-06 18:00N 48°06' W 004°20'0 0.0
2018-Feb-06 17:24N 48°06' W 004°20'0 0.0
2018-Feb-06 17:00N 48°06' W 004°20'0 0.0
2018-Feb-06 16:30N 48°06' W 004°20'0 0.0
2018-Feb-06 15:58N 48°06' W 004°20'0 0.0
2018-Feb-06 15:27N 48°06' W 004°20'0 0.0
2018-Feb-06 15:00N 48°06' W 004°20'0 0.0
2018-Feb-06 14:26N 48°06' W 004°20'0 0.0
2018-Feb-06 14:00N 48°06' W 004°20'0 0.0
2018-Feb-06 13:27N 48°06' W 004°20'0 0.0
2018-Feb-06 12:44N 48°06' W 004°20'0 0.0
2018-Feb-06 12:25N 48°06' W 004°20'0 0.0
2018-Feb-06 11:58N 48°06' W 004°20'0 0.0
2018-Feb-06 11:24N 48°06' W 004°20'0 0.0
2018-Feb-06 10:59N 48°06' W 004°20'0 0.0
2018-Feb-06 10:27N 48°06' W 004°20'0 0.1
2018-Feb-06 09:57N 48°06' W 004°20'0 0.0
2018-Feb-06 09:30N 48°06' W 004°20'0 0.0
2018-Feb-06 08:59N 48°06' W 004°20'0 0.0
2018-Feb-06 08:30N 48°06' W 004°20'0 0.0
2018-Feb-06 07:30N 48°06' W 004°20'0 0.0
2018-Feb-06 06:57N 48°06' W 004°20'0 0.0
2018-Feb-06 06:30N 48°06' W 004°20'0 0.0
2018-Feb-06 06:00N 48°06' W 004°20'0 0.0
2018-Feb-06 05:30N 48°06' W 004°20'0 0.0
2018-Feb-06 04:58N 48°06' W 004°20'0 0.0
2018-Feb-06 04:30N 48°06' W 004°20'0 0.0
2018-Feb-06 03:58N 48°06' W 004°20'0 0.0
2018-Feb-06 03:30N 48°06' W 004°20'0 0.0
2018-Feb-06 03:00N 48°06' W 004°20'0 0.0
2018-Feb-06 02:30N 48°06' W 004°20'0 0.0
2018-Feb-06 02:00N 48°06' W 004°20'0 0.0
2018-Feb-06 01:30N 48°06' W 004°20'0 0.0
2018-Feb-06 01:00N 48°06' W 004°20'0 0.0
2018-Feb-06 00:29N 48°06' W 004°20'0 0.0
2018-Feb-06 00:00N 48°06' W 004°20'0 0.0
2018-Feb-05 23:30N 48°06' W 004°20'0 0.0
2018-Feb-05 22:59N 48°06' W 004°20'0 0.0
2018-Feb-05 22:30N 48°06' W 004°20'0 0.0
2018-Feb-05 21:57N 48°06' W 004°20'0 0.0
2018-Feb-05 21:29N 48°06' W 004°20'0 0.0
2018-Feb-05 20:29N 48°06' W 004°20'0 0.0
2018-Feb-05 20:00N 48°06' W 004°20'0 0.0
2018-Feb-05 19:29N 48°06' W 004°20'0 0.0
2018-Feb-05 18:59N 48°06' W 004°20'0 0.0
2018-Feb-05 18:26N 48°06' W 004°20'0 0.0
2018-Feb-05 17:23N 48°06' W 004°20'0 0.0
2018-Feb-05 16:58N 48°06' W 004°20'0 0.0
2018-Feb-05 16:29N 48°06' W 004°20'0 0.0
2018-Feb-05 15:57N 48°06' W 004°20'0 0.0
2018-Feb-05 15:29N 48°06' W 004°20'0 0.0
2018-Feb-05 15:00N 48°06' W 004°20'0 0.0
2018-Feb-05 14:30N 48°06' W 004°20'0 0.0
2018-Feb-05 13:59N 48°06' W 004°20'0 0.0
2018-Feb-05 01:48N 48°06' W 004°20'  
Track history (hours):
 
Tides and Currents Weather Stations Pressure Air Temp Water Temp Dewpoint Dewpoint Depression Visibility Wind Speed Wind Dir Waves Ship Positions

F/V Iroise

Last reported at 2018-Feb-13 22:09 UTC. Time now 2018-Feb-18 03:32 UTC.
Position N 48°36' W 004°57'.

Length 33 m; draft 4.5 m.

Type: Fishing. MMSI: 227347000.

Date/timePositionNaut miles runAvg speedWind from/ knotsBaromVisibWave heightAir tempDewpointWater temp
2018-Feb-13 22:09N 48°36' W 004°57'1 9.5
2018-Feb-13 22:00N 48°34' W 004°56'7 9.3
2018-Feb-13 21:13N 48°28' W 004°51'2 9.3
2018-Feb-13 21:00N 48°26' W 004°50'4 9.0
2018-Feb-13 20:30N 48°22' W 004°49'4 8.5
2018-Feb-13 20:00N 48°18' W 004°47'5 9.3
2018-Feb-13 19:30N 48°13' W 004°46'4 8.9
2018-Feb-13 19:00N 48°09' W 004°42'5 9.3
2018-Feb-13 18:29N 48°07' W 004°35'5 9.6
2018-Feb-13 17:59N 48°08' W 004°28'4 8.9
2018-Feb-13 17:30N 48°08' W 004°22'2 4.6
2018-Feb-13 17:00N 48°06' W 004°19'0 0.0
2018-Feb-13 16:25N 48°06' W 004°19'0 0.3
2018-Feb-13 16:00N 48°06' W 004°20'0 0.0
2018-Feb-13 15:30N 48°06' W 004°20'0 0.0
2018-Feb-13 14:59N 48°06' W 004°20'0 0.0
2018-Feb-13 14:30N 48°06' W 004°20'0 0.0
2018-Feb-13 14:00N 48°06' W 004°20'0 0.0
2018-Feb-13 13:29N 48°06' W 004°20'0 0.0
2018-Feb-13 13:00N 48°06' W 004°20'0 0.0
2018-Feb-13 12:30N 48°06' W 004°20'0 0.0
2018-Feb-13 12:00N 48°06' W 004°20'0 0.0
2018-Feb-13 11:28N 48°06' W 004°20'0 0.0
2018-Feb-13 10:57N 48°06' W 004°20'0 0.0
2018-Feb-13 10:24N 48°06' W 004°20'0 0.0
2018-Feb-13 09:59N 48°06' W 004°20'0 0.0
2018-Feb-13 09:27N 48°06' W 004°20'0 0.0
2018-Feb-13 08:52N 48°06' W 004°20'0 0.0
2018-Feb-13 08:29N 48°06' W 004°20'0 0.0
2018-Feb-13 08:00N 48°06' W 004°20'0 0.0
2018-Feb-13 07:13N 48°06' W 004°20'0 0.0
2018-Feb-13 07:00N 48°06' W 004°20'0 0.0
2018-Feb-13 06:21N 48°06' W 004°20'0 0.0
2018-Feb-13 05:59N 48°06' W 004°20'0 0.0
2018-Feb-13 05:30N 48°06' W 004°20'0 0.0
2018-Feb-13 05:00N 48°06' W 004°20'0 0.0
2018-Feb-13 04:29N 48°06' W 004°20'0 0.0
2018-Feb-13 03:53N 48°06' W 004°20'0 0.0
2018-Feb-13 03:29N 48°06' W 004°20'0 0.0
2018-Feb-13 02:57N 48°06' W 004°20'0 0.0
2018-Feb-13 02:27N 48°06' W 004°20'0 0.0
2018-Feb-13 01:59N 48°06' W 004°20'0 0.0
2018-Feb-13 01:27N 48°06' W 004°20'0 0.0
2018-Feb-13 01:00N 48°06' W 004°20'0 0.0
2018-Feb-13 00:30N 48°06' W 004°20'0 0.0
2018-Feb-12 23:57N 48°06' W 004°20'0 0.0
2018-Feb-12 23:29N 48°06' W 004°20'0 0.0
2018-Feb-12 22:58N 48°06' W 004°20'0 0.0
2018-Feb-12 22:30N 48°06' W 004°20'0 0.0
2018-Feb-12 22:00N 48°06' W 004°20'0 0.0
2018-Feb-12 21:25N 48°06' W 004°20'0 0.0
2018-Feb-12 20:56N 48°06' W 004°20'0 0.0
2018-Feb-12 20:28N 48°06' W 004°20'0 0.0
2018-Feb-12 19:58N 48°06' W 004°20'0 0.0
2018-Feb-12 19:15N 48°06' W 004°20'0 0.0
2018-Feb-12 18:59N 48°06' W 004°20'0 0.0
2018-Feb-12 18:25N 48°06' W 004°20'0 0.0
2018-Feb-12 18:00N 48°06' W 004°20'0 0.0
2018-Feb-12 17:28N 48°06' W 004°20'0 0.0
2018-Feb-12 16:59N 48°06' W 004°20'0 0.0
2018-Feb-12 16:28N 48°06' W 004°20'0 0.0
2018-Feb-12 15:59N 48°06' W 004°20'0 0.0
2018-Feb-12 15:29N 48°06' W 004°20'0 0.0
2018-Feb-12 15:00N 48°06' W 004°20'0 0.0
2018-Feb-12 14:23N 48°06' W 004°20'0 0.0
2018-Feb-12 13:58N 48°06' W 004°20'0 0.0
2018-Feb-12 13:25N 48°06' W 004°20'0 0.0
2018-Feb-12 12:57N 48°06' W 004°20'0 0.0
2018-Feb-12 12:23N 48°06' W 004°20'0 0.0
2018-Feb-12 11:58N 48°06' W 004°20'0 0.0
2018-Feb-12 11:29N 48°06' W 004°20'0 0.0
2018-Feb-12 10:50N 48°06' W 004°20'0 0.0
2018-Feb-12 10:29N 48°06' W 004°20'0 0.0
2018-Feb-12 09:52N 48°06' W 004°20'0 0.0
2018-Feb-12 09:23N 48°06' W 004°20'0 0.0
2018-Feb-12 08:57N 48°06' W 004°20'0 0.0
2018-Feb-12 08:09N 48°06' W 004°20'0 0.0
2018-Feb-12 07:59N 48°06' W 004°20'0 0.0
2018-Feb-12 07:28N 48°06' W 004°20'0 0.0
2018-Feb-12 07:00N 48°06' W 004°20'0 0.0
2018-Feb-12 06:24N 48°06' W 004°20'0 0.0
2018-Feb-12 05:52N 48°06' W 004°20'0 0.0
2018-Feb-12 05:30N 48°06' W 004°20'0 0.0
2018-Feb-12 05:00N 48°06' W 004°20'0 0.0
2018-Feb-12 04:26N 48°06' W 004°20'0 0.0
2018-Feb-12 04:00N 48°06' W 004°20'0 0.0
2018-Feb-12 03:30N 48°06' W 004°20'0 0.0
2018-Feb-12 03:00N 48°06' W 004°20'0 0.0
2018-Feb-12 02:29N 48°06' W 004°20'0 0.0
2018-Feb-12 02:00N 48°06' W 004°20'0 0.0
2018-Feb-12 01:25N 48°06' W 004°20'0 0.0
2018-Feb-12 00:58N 48°06' W 004°20'0 0.0
2018-Feb-12 00:28N 48°06' W 004°20'0 0.0
2018-Feb-12 00:00N 48°06' W 004°20'0 0.0
2018-Feb-11 23:30N 48°06' W 004°20'0 0.0
2018-Feb-11 23:01N 48°06' W 004°20'0 0.0
2018-Feb-11 22:29N 48°06' W 004°20'0 0.0
2018-Feb-11 21:56N 48°06' W 004°20'0 0.0
2018-Feb-11 21:22N 48°06' W 004°20'0 0.0
2018-Feb-11 21:00N 48°06' W 004°20'0 0.0
2018-Feb-11 20:30N 48°06' W 004°20'0 0.0
2018-Feb-11 19:58N 48°06' W 004°20'0 0.0
2018-Feb-11 19:29N 48°06' W 004°20'0 0.0
2018-Feb-11 18:59N 48°06' W 004°20'0 0.0
2018-Feb-11 18:29N 48°06' W 004°20'0 0.0
2018-Feb-11 17:57N 48°06' W 004°20'0 0.0
2018-Feb-11 17:30N 48°06' W 004°20'0 0.0
2018-Feb-11 17:00N 48°06' W 004°20'0 0.0
2018-Feb-11 16:14N 48°06' W 004°20'0 0.0
2018-Feb-11 15:56N 48°06' W 004°20'0 0.0
2018-Feb-11 15:27N 48°06' W 004°20'0 0.0
2018-Feb-11 14:58N 48°06' W 004°20'0 0.0
2018-Feb-11 14:29N 48°06' W 004°20'0 0.0
2018-Feb-11 13:58N 48°06' W 004°20'0 0.0
2018-Feb-11 13:25N 48°06' W 004°20'0 0.0
2018-Feb-11 12:59N 48°06' W 004°20'0 0.0
2018-Feb-11 12:30N 48°06' W 004°20'0 0.0
2018-Feb-11 11:56N 48°06' W 004°20'0 0.0
2018-Feb-11 11:26N 48°06' W 004°20'0 0.0
2018-Feb-11 10:54N 48°06' W 004°20'0 0.0
2018-Feb-11 10:23N 48°06' W 004°20'0 0.0
2018-Feb-11 09:58N 48°06' W 004°20'0 0.0
2018-Feb-11 09:28N 48°06' W 004°20'0 0.0
2018-Feb-11 08:57N 48°06' W 004°20'0 0.0
2018-Feb-11 08:28N 48°06' W 004°20'0 0.0
2018-Feb-11 08:00N 48°06' W 004°20'0 0.0
2018-Feb-11 07:26N 48°06' W 004°20'0 0.0
2018-Feb-11 07:00N 48°06' W 004°20'0 0.0
2018-Feb-11 06:30N 48°06' W 004°20'0 0.0
2018-Feb-11 05:55N 48°06' W 004°20'0 0.0
2018-Feb-11 05:26N 48°06' W 004°20'0 0.0
2018-Feb-11 04:54N 48°06' W 004°20'0 0.0
2018-Feb-11 04:30N 48°06' W 004°20'0 0.0
2018-Feb-11 03:59N 48°06' W 004°20'0 0.0
2018-Feb-11 03:30N 48°06' W 004°20'0 0.0
2018-Feb-11 02:59N 48°06' W 004°20'0 0.0
2018-Feb-11 02:29N 48°06' W 004°20'0 0.0
2018-Feb-11 01:53N 48°06' W 004°20'0 0.0
2018-Feb-11 01:28N 48°06' W 004°20'0 0.0
2018-Feb-11 00:58N 48°06' W 004°20'0 0.0
2018-Feb-11 00:30N 48°06' W 004°20'0 0.0
2018-Feb-10 23:58N 48°06' W 004°20'0 0.0
2018-Feb-10 23:29N 48°06' W 004°20'0 0.0
2018-Feb-10 22:56N 48°06' W 004°20'0 0.0
2018-Feb-10 22:15N 48°06' W 004°20'0 0.0
2018-Feb-10 21:53N 48°06' W 004°20'0 0.0
2018-Feb-10 21:29N 48°06' W 004°20'0 0.0
2018-Feb-10 21:00N 48°06' W 004°20'0 0.0
2018-Feb-10 20:29N 48°06' W 004°20'0 0.0
2018-Feb-10 20:00N 48°06' W 004°20'0 0.0
2018-Feb-10 19:29N 48°06' W 004°20'0 0.0
2018-Feb-10 19:00N 48°06' W 004°20'0 0.0
2018-Feb-10 18:28N 48°06' W 004°20'0 0.0
2018-Feb-10 17:59N 48°06' W 004°20'0 0.0
2018-Feb-10 17:25N 48°06' W 004°20'0 0.0
2018-Feb-10 17:00N 48°06' W 004°20'0 0.0
2018-Feb-10 16:28N 48°06' W 004°20'0 0.0
2018-Feb-10 16:00N 48°06' W 004°20'0 0.0
2018-Feb-10 15:30N 48°06' W 004°20'0 0.0
2018-Feb-10 15:00N 48°06' W 004°20'0 0.0
2018-Feb-10 14:28N 48°06' W 004°20'0 0.0
2018-Feb-10 13:59N 48°06' W 004°20'0 0.0
2018-Feb-10 13:29N 48°06' W 004°20'0 0.0
2018-Feb-10 13:00N 48°06' W 004°20'0 0.0
2018-Feb-10 12:28N 48°06' W 004°20'0 0.0
2018-Feb-10 12:00N 48°06' W 004°20'0 0.0
2018-Feb-10 11:23N 48°06' W 004°20'0 0.0
2018-Feb-10 10:55N 48°06' W 004°20'0 0.0
2018-Feb-10 10:26N 48°06' W 004°20'0 0.0
2018-Feb-10 09:59N 48°06' W 004°20'0 0.0
2018-Feb-10 09:27N 48°06' W 004°20'0 0.0
2018-Feb-10 08:50N 48°06' W 004°20'0 0.0
2018-Feb-10 08:30N 48°06' W 004°20'0 0.0
2018-Feb-10 07:58N 48°06' W 004°20'0 0.0
2018-Feb-10 07:30N 48°06' W 004°20'0 0.0
2018-Feb-10 07:00N 48°06' W 004°20'0 0.0
2018-Feb-10 06:29N 48°06' W 004°20'0 0.0
2018-Feb-10 05:58N 48°06' W 004°20'0 0.0
2018-Feb-10 05:29N 48°06' W 004°20'0 0.0
2018-Feb-10 04:59N 48°06' W 004°20'0 0.0
2018-Feb-10 04:30N 48°06' W 004°20'0 0.0
2018-Feb-10 04:00N 48°06' W 004°20'0 0.0
2018-Feb-10 03:28N 48°06' W 004°20'0 0.0
2018-Feb-10 02:59N 48°06' W 004°20'0 0.0
2018-Feb-10 02:25N 48°06' W 004°20'0 0.0
2018-Feb-10 01:57N 48°06' W 004°20'0 0.0
2018-Feb-10 01:21N 48°06' W 004°20'0 0.0
2018-Feb-10 00:58N 48°06' W 004°20'0 0.0
2018-Feb-10 00:30N 48°06' W 004°20'0 0.0
2018-Feb-09 23:59N 48°06' W 004°20'0 0.0
2018-Feb-09 23:30N 48°06' W 004°20'0 0.0
2018-Feb-09 23:00N 48°06' W 004°20'0 0.0
2018-Feb-09 22:45N 48°06' W 004°20'0 0.0
2018-Feb-09 16:30N 48°06' W 004°20'0 0.0
2018-Feb-09 11:30N 48°06' W 004°20'0 0.0
2018-Feb-08 16:30N 48°06' W 004°20'0 0.0
2018-Feb-08 11:30N 48°06' W 004°20'0 0.0
2018-Feb-08 01:29N 48°06' W 004°20'0 0.0
2018-Feb-08 00:59N 48°06' W 004°20'0 0.0
2018-Feb-08 00:21N 48°06' W 004°20'0 0.0
2018-Feb-08 00:00N 48°06' W 004°20'0 0.0
2018-Feb-07 23:23N 48°06' W 004°20'0 0.0
2018-Feb-07 22:59N 48°06' W 004°20'0 0.0
2018-Feb-07 22:30N 48°06' W 004°20'0 0.0
2018-Feb-07 21:59N 48°06' W 004°20'0 0.0
2018-Feb-07 21:30N 48°06' W 004°20'0 0.0
2018-Feb-07 09:28N 48°06' W 004°20'0 0.0
2018-Feb-07 09:00N 48°06' W 004°20'0 0.0
2018-Feb-07 08:25N 48°06' W 004°20'0 0.0
2018-Feb-07 07:58N 48°06' W 004°20'0 0.0
2018-Feb-07 07:29N 48°06' W 004°20'0 0.0
2018-Feb-07 07:00N 48°06' W 004°20'0 0.0
2018-Feb-07 06:28N 48°06' W 004°20'0 0.0
2018-Feb-07 06:00N 48°06' W 004°20'0 0.0
2018-Feb-07 05:00N 48°06' W 004°20'0 0.0
2018-Feb-07 04:30N 48°06' W 004°20'0 0.0
2018-Feb-07 03:55N 48°06' W 004°20'0 0.0
2018-Feb-07 03:30N 48°06' W 004°20'0 0.0
2018-Feb-07 02:59N 48°06' W 004°20'0 0.0
2018-Feb-07 02:26N 48°06' W 004°20'0 0.0
2018-Feb-07 02:00N 48°06' W 004°20'0 0.0
2018-Feb-07 01:28N 48°06' W 004°20'0 0.0
2018-Feb-07 00:59N 48°06' W 004°20'0 0.0
2018-Feb-07 00:29N 48°06' W 004°20'0 0.0
2018-Feb-07 00:00N 48°06' W 004°20'0 0.0
2018-Feb-06 23:29N 48°06' W 004°20'0 0.0
2018-Feb-06 22:58N 48°06' W 004°20'0 0.0
2018-Feb-06 22:29N 48°06' W 004°20'0 0.0
2018-Feb-06 22:00N 48°06' W 004°20'0 0.0
2018-Feb-06 21:29N 48°06' W 004°20'0 0.0
2018-Feb-06 21:00N 48°06' W 004°20'0 0.0
2018-Feb-06 20:28N 48°06' W 004°20'0 0.0
2018-Feb-06 19:54N 48°06' W 004°20'0 0.0
2018-Feb-06 19:30N 48°06' W 004°20'0 0.0
2018-Feb-06 19:00N 48°06' W 004°20'0 0.0
2018-Feb-06 18:27N 48°06' W 004°20'0 0.0
2018-Feb-06 18:00N 48°06' W 004°20'0 0.0
2018-Feb-06 17:24N 48°06' W 004°20'0 0.0
2018-Feb-06 17:00N 48°06' W 004°20'0 0.0
2018-Feb-06 16:30N 48°06' W 004°20'0 0.0
2018-Feb-06 15:58N 48°06' W 004°20'0 0.0
2018-Feb-06 15:27N 48°06' W 004°20'0 0.0
2018-Feb-06 15:00N 48°06' W 004°20'0 0.0
2018-Feb-06 14:26N 48°06' W 004°20'0 0.0
2018-Feb-06 14:00N 48°06' W 004°20'0 0.0
2018-Feb-06 13:27N 48°06' W 004°20'0 0.0
2018-Feb-06 12:44N 48°06' W 004°20'0 0.0
2018-Feb-06 12:25N 48°06' W 004°20'0 0.0
2018-Feb-06 11:58N 48°06' W 004°20'0 0.0
2018-Feb-06 11:24N 48°06' W 004°20'0 0.0
2018-Feb-06 10:59N 48°06' W 004°20'0 0.0
2018-Feb-06 10:27N 48°06' W 004°20'0 0.1
2018-Feb-06 09:57N 48°06' W 004°20'0 0.0
2018-Feb-06 09:30N 48°06' W 004°20'0 0.0
2018-Feb-06 08:59N 48°06' W 004°20'0 0.0
2018-Feb-06 08:30N 48°06' W 004°20'0 0.0
2018-Feb-06 07:30N 48°06' W 004°20'0 0.0
2018-Feb-06 06:57N 48°06' W 004°20'0 0.0
2018-Feb-06 06:30N 48°06' W 004°20'0 0.0
2018-Feb-06 06:00N 48°06' W 004°20'0 0.0
2018-Feb-06 05:30N 48°06' W 004°20'0 0.0
2018-Feb-06 04:58N 48°06' W 004°20'0 0.0
2018-Feb-06 04:30N 48°06' W 004°20'0 0.0
2018-Feb-06 03:58N 48°06' W 004°20'0 0.0
2018-Feb-06 03:30N 48°06' W 004°20'0 0.0
2018-Feb-06 03:00N 48°06' W 004°20'0 0.0
2018-Feb-06 02:30N 48°06' W 004°20'0 0.0
2018-Feb-06 02:00N 48°06' W 004°20'0 0.0
2018-Feb-06 01:30N 48°06' W 004°20'0 0.0
2018-Feb-06 01:00N 48°06' W 004°20'0 0.0
2018-Feb-06 00:29N 48°06' W 004°20'0 0.0
2018-Feb-06 00:00N 48°06' W 004°20'0 0.0
2018-Feb-05 23:30N 48°06' W 004°20'0 0.0
2018-Feb-05 22:59N 48°06' W 004°20'0 0.0
2018-Feb-05 22:30N 48°06' W 004°20'0 0.0
2018-Feb-05 21:57N 48°06' W 004°20'0 0.0
2018-Feb-05 21:29N 48°06' W 004°20'0 0.0
2018-Feb-05 20:29N 48°06' W 004°20'0 0.0
2018-Feb-05 20:00N 48°06' W 004°20'0 0.0
2018-Feb-05 19:29N 48°06' W 004°20'0 0.0
2018-Feb-05 18:59N 48°06' W 004°20'0 0.0
2018-Feb-05 18:26N 48°06' W 004°20'0 0.0
2018-Feb-05 17:23N 48°06' W 004°20'0 0.0
2018-Feb-05 16:58N 48°06' W 004°20'0 0.0
2018-Feb-05 16:29N 48°06' W 004°20'0 0.0
2018-Feb-05 15:57N 48°06' W 004°20'0 0.0
2018-Feb-05 15:29N 48°06' W 004°20'0 0.0
2018-Feb-05 15:00N 48°06' W 004°20'0 0.0
2018-Feb-05 14:30N 48°06' W 004°20'0 0.0
2018-Feb-05 13:59N 48°06' W 004°20'0 0.0
2018-Feb-05 01:48N 48°06' W 004°20'  

Dump ship's entire track history